sensor_id;sensor_type;location;lat;lon;timestamp;pressure;altitude;pressure_sealevel;temperature;humidity
788;BME280;16074;42.708;23.312;2023-04-16T00:01:19;141441.94;;;12.97;63.88
788;BME280;16074;42.708;23.312;2023-04-16T00:03:48;141420.16;;;12.88;64.58
788;BME280;16074;42.708;23.312;2023-04-16T00:06:18;141409.28;;;12.83;65.65
788;BME280;16074;42.708;23.312;2023-04-16T00:08:46;141406.88;;;12.82;66.63
788;BME280;16074;42.708;23.312;2023-04-16T00:11:14;141406.88;;;12.82;68.23
788;BME280;16074;42.708;23.312;2023-04-16T00:13:42;141398.44;;;12.79;68.08
788;BME280;16074;42.708;23.312;2023-04-16T00:16:10;141396.03;;;12.78;68.48
788;BME280;16074;42.708;23.312;2023-04-16T00:18:39;141371.88;;;12.68;68.90
788;BME280;16074;42.708;23.312;2023-04-16T00:21:08;141348.97;;;12.58;69.24
788;BME280;16074;42.708;23.312;2023-04-16T00:23:37;141350.16;;;12.59;69.72
788;BME280;16074;42.708;23.312;2023-04-16T00:26:05;141295.88;;;12.36;69.34
788;BME280;16074;42.708;23.312;2023-04-16T00:28:33;141233.22;;;12.10;69.81
788;BME280;16074;42.708;23.312;2023-04-16T00:31:01;141241.63;;;12.14;69.07
788;BME280;16074;42.708;23.312;2023-04-16T00:33:29;141247.69;;;12.16;69.04
788;BME280;16074;42.708;23.312;2023-04-16T00:35:58;141254.88;;;12.19;68.24
788;BME280;16074;42.708;23.312;2023-04-16T00:38:27;141223.56;;;12.06;67.18
788;BME280;16074;42.708;23.312;2023-04-16T00:40:58;141190.97;;;11.93;67.05
788;BME280;16074;42.708;23.312;2023-04-16T00:43:26;141166.91;;;11.83;64.44
788;BME280;16074;42.708;23.312;2023-04-16T00:45:55;141163.25;;;11.82;62.41
788;BME280;16074;42.708;23.312;2023-04-16T00:48:23;141150.00;;;11.76;62.34
788;BME280;16074;42.708;23.312;2023-04-16T00:50:54;141089.69;;;11.51;60.31
788;BME280;16074;42.708;23.312;2023-04-16T00:53:22;141092.09;;;11.52;60.76
788;BME280;16074;42.708;23.312;2023-04-16T00:55:53;141080.03;;;11.47;60.19
788;BME280;16074;42.708;23.312;2023-04-16T00:58:23;141083.69;;;11.49;60.21
788;BME280;16074;42.708;23.312;2023-04-16T01:00:52;141063.16;;;11.40;60.26
788;BME280;16074;42.708;23.312;2023-04-16T01:03:20;141049.91;;;11.35;59.69
788;BME280;16074;42.708;23.312;2023-04-16T01:05:50;141039.09;;;11.30;59.06
788;BME280;16074;42.708;23.312;2023-04-16T01:08:19;141046.28;;;11.33;59.85
788;BME280;16074;42.708;23.312;2023-04-16T01:10:47;141035.47;;;11.29;59.59
788;BME280;16074;42.708;23.312;2023-04-16T01:13:17;141008.94;;;11.18;59.17
788;BME280;16074;42.708;23.312;2023-04-16T01:15:45;140961.97;;;10.98;59.73
788;BME280;16074;42.708;23.312;2023-04-16T01:18:14;140983.66;;;11.07;59.90
788;BME280;16074;42.708;23.312;2023-04-16T01:20:44;140982.44;;;11.07;60.07
788;BME280;16074;42.708;23.312;2023-04-16T01:23:12;140987.25;;;11.09;59.73
788;BME280;16074;42.708;23.312;2023-04-16T01:25:41;140970.44;;;11.02;59.44
788;BME280;16074;42.708;23.312;2023-04-16T01:28:09;140966.78;;;11.00;59.73
788;BME280;16074;42.708;23.312;2023-04-16T01:30:38;140977.59;;;11.05;59.97
788;BME280;16074;42.708;23.312;2023-04-16T01:33:20;140951.16;;;10.94;59.10
788;BME280;16074;42.708;23.312;2023-04-16T01:35:50;140934.28;;;10.87;59.18
788;BME280;16074;42.708;23.312;2023-04-16T01:38:18;140868.03;;;10.60;60.45
788;BME280;16074;42.708;23.312;2023-04-16T01:40:46;140805.41;;;10.34;60.73
788;BME280;16074;42.708;23.312;2023-04-16T01:43:15;140836.72;;;10.47;61.14
788;BME280;16074;42.708;23.312;2023-04-16T01:45:43;140837.97;;;10.47;62.26
788;BME280;16074;42.708;23.312;2023-04-16T01:48:11;140813.88;;;10.37;63.13
788;BME280;16074;42.708;23.312;2023-04-16T01:50:40;140809.06;;;10.35;63.27
788;BME280;16074;42.708;23.312;2023-04-16T01:53:10;140833.13;;;10.45;63.26
788;BME280;16074;42.708;23.312;2023-04-16T01:55:38;140857.19;;;10.55;63.10
788;BME280;16074;42.708;23.312;2023-04-16T01:58:06;140872.88;;;10.62;63.41
788;BME280;16074;42.708;23.312;2023-04-16T02:00:37;140895.72;;;10.71;63.38
788;BME280;16074;42.708;23.312;2023-04-16T02:03:06;140918.59;;;10.80;62.79
788;BME280;16074;42.708;23.312;2023-04-16T02:05:34;140918.59;;;10.80;62.98
788;BME280;16074;42.708;23.312;2023-04-16T02:08:03;140923.41;;;10.82;62.88
788;BME280;16074;42.708;23.312;2023-04-16T02:10:33;140923.41;;;10.82;62.51
788;BME280;16074;42.708;23.312;2023-04-16T02:13:01;140935.47;;;10.87;62.06
788;BME280;16074;42.708;23.312;2023-04-16T02:15:30;140943.91;;;10.91;62.14
788;BME280;16074;42.708;23.312;2023-04-16T02:17:59;140935.47;;;10.87;62.49
788;BME280;16074;42.708;23.312;2023-04-16T02:20:27;140945.09;;;10.91;62.81
788;BME280;16074;42.708;23.312;2023-04-16T02:22:58;140957.16;;;10.96;62.70
788;BME280;16074;42.708;23.312;2023-04-16T02:25:27;140959.56;;;10.97;63.03
788;BME280;16074;42.708;23.312;2023-04-16T02:27:58;140964.38;;;10.99;63.48
788;BME280;16074;42.708;23.312;2023-04-16T02:30:39;140975.25;;;11.04;63.75
788;BME280;16074;42.708;23.312;2023-04-16T02:33:09;140989.66;;;11.10;64.52
788;BME280;16074;42.708;23.312;2023-04-16T02:35:44;140984.84;;;11.08;64.65
788;BME280;16074;42.708;23.312;2023-04-16T02:38:12;140992.06;;;11.11;64.65
788;BME280;16074;42.708;23.312;2023-04-16T02:40:40;140995.72;;;11.12;64.71
788;BME280;16074;42.708;23.312;2023-04-16T02:43:11;141007.75;;;11.17;64.81
788;BME280;16074;42.708;23.312;2023-04-16T02:45:40;141013.75;;;11.20;64.94
788;BME280;16074;42.708;23.312;2023-04-16T02:48:09;141016.19;;;11.21;65.00
788;BME280;16074;42.708;23.312;2023-04-16T02:50:37;141002.94;;;11.15;64.47
788;BME280;16074;42.708;23.312;2023-04-16T02:53:05;141006.53;;;11.17;64.83
788;BME280;16074;42.708;23.312;2023-04-16T02:55:34;141006.53;;;11.17;64.87
788;BME280;16074;42.708;23.312;2023-04-16T02:58:02;141012.59;;;11.19;65.12
788;BME280;16074;42.708;23.312;2023-04-16T03:00:31;141021.00;;;11.23;65.07
788;BME280;16074;42.708;23.312;2023-04-16T03:03:00;141025.81;;;11.25;64.69
788;BME280;16074;42.708;23.312;2023-04-16T03:05:28;141001.72;;;11.15;65.25
788;BME280;16074;42.708;23.312;2023-04-16T03:07:56;140981.25;;;11.06;65.43
788;BME280;16074;42.708;23.312;2023-04-16T03:10:24;140978.84;;;11.05;65.50
788;BME280;16074;42.708;23.312;2023-04-16T03:12:53;141002.94;;;11.15;65.71
788;BME280;16074;42.708;23.312;2023-04-16T03:15:21;141010.16;;;11.18;65.79
788;BME280;16074;42.708;23.312;2023-04-16T03:17:51;141015.00;;;11.20;65.49
788;BME280;16074;42.708;23.312;2023-04-16T03:20:19;141019.81;;;11.22;65.78
788;BME280;16074;42.708;23.312;2023-04-16T03:22:48;141024.63;;;11.24;65.77
788;BME280;16074;42.708;23.312;2023-04-16T03:25:18;141025.81;;;11.25;65.95
788;BME280;16074;42.708;23.312;2023-04-16T03:27:46;141023.41;;;11.24;64.84
788;BME280;16074;42.708;23.312;2023-04-16T03:30:15;141016.19;;;11.21;65.15
788;BME280;16074;42.708;23.312;2023-04-16T03:32:43;141016.19;;;11.21;65.12
788;BME280;16074;42.708;23.312;2023-04-16T03:35:13;140994.47;;;11.12;65.39
788;BME280;16074;42.708;23.312;2023-04-16T03:37:41;140906.59;;;10.75;65.66
788;BME280;16074;42.708;23.312;2023-04-16T03:40:10;140933.06;;;10.86;66.14
788;BME280;16074;42.708;23.312;2023-04-16T03:42:38;140876.44;;;10.63;66.20
788;BME280;16074;42.708;23.312;2023-04-16T03:45:07;140862.00;;;10.57;66.67
788;BME280;16074;42.708;23.312;2023-04-16T03:47:37;140870.47;;;10.61;67.40
788;BME280;16074;42.708;23.312;2023-04-16T03:50:07;140857.19;;;10.55;67.03
788;BME280;16074;42.708;23.312;2023-04-16T03:52:36;140807.81;;;10.35;67.58
788;BME280;16074;42.708;23.312;2023-04-16T03:55:06;140815.06;;;10.38;67.51
788;BME280;16074;42.708;23.312;2023-04-16T03:57:35;140837.97;;;10.47;67.37
788;BME280;16074;42.708;23.312;2023-04-16T04:00:08;140831.91;;;10.45;67.28
788;BME280;16074;42.708;23.312;2023-04-16T04:02:42;140845.13;;;10.50;67.39
788;BME280;16074;42.708;23.312;2023-04-16T04:05:17;140864.41;;;10.58;67.06
788;BME280;16074;42.708;23.312;2023-04-16T04:07:47;140888.50;;;10.68;67.19
788;BME280;16074;42.708;23.312;2023-04-16T04:10:15;140902.97;;;10.74;66.08
788;BME280;16074;42.708;23.312;2023-04-16T04:12:44;140902.97;;;10.74;65.55
788;BME280;16074;42.708;23.312;2023-04-16T04:15:12;140911.38;;;10.77;65.74
788;BME280;16074;42.708;23.312;2023-04-16T04:17:41;140921.00;;;10.81;66.03
788;BME280;16074;42.708;23.312;2023-04-16T04:20:11;140939.09;;;10.89;65.56
788;BME280;16074;42.708;23.312;2023-04-16T04:22:43;140957.16;;;10.96;65.36
788;BME280;16074;42.708;23.312;2023-04-16T04:25:13;140970.44;;;11.02;64.00
788;BME280;16074;42.708;23.312;2023-04-16T04:27:41;140965.59;;;11.00;64.49
788;BME280;16074;42.708;23.312;2023-04-16T04:30:10;140943.91;;;10.91;64.43
788;BME280;16074;42.708;23.312;2023-04-16T04:32:40;140930.63;;;10.85;64.94
788;BME280;16074;42.708;23.312;2023-04-16T04:35:08;140969.19;;;11.01;64.50
788;BME280;16074;42.708;23.312;2023-04-16T04:37:37;140983.66;;;11.07;64.16
788;BME280;16074;42.708;23.312;2023-04-16T04:40:14;141000.53;;;11.14;63.48
788;BME280;16074;42.708;23.312;2023-04-16T04:42:42;141008.94;;;11.18;63.37
788;BME280;16074;42.708;23.312;2023-04-16T04:45:11;141013.75;;;11.20;62.95
788;BME280;16074;42.708;23.312;2023-04-16T04:47:40;141033.03;;;11.28;62.50
788;BME280;16074;42.708;23.312;2023-04-16T04:50:09;141042.69;;;11.32;61.70
788;BME280;16074;42.708;23.312;2023-04-16T04:52:37;141037.88;;;11.30;60.73
788;BME280;16074;42.708;23.312;2023-04-16T04:55:07;141051.09;;;11.35;60.96
788;BME280;16074;42.708;23.312;2023-04-16T04:57:36;141046.28;;;11.33;61.94
788;BME280;16074;42.708;23.312;2023-04-16T05:00:06;141059.56;;;11.39;62.41
788;BME280;16074;42.708;23.312;2023-04-16T05:02:48;141069.22;;;11.43;62.47
788;BME280;16074;42.708;23.312;2023-04-16T05:05:18;141037.88;;;11.30;62.44
788;BME280;16074;42.708;23.312;2023-04-16T05:07:46;141058.34;;;11.38;62.42
788;BME280;16074;42.708;23.312;2023-04-16T05:10:15;141082.44;;;11.48;61.95
788;BME280;16074;42.708;23.312;2023-04-16T05:12:45;141078.84;;;11.47;61.98
788;BME280;16074;42.708;23.312;2023-04-16T05:15:15;141100.59;;;11.56;62.39
788;BME280;16074;42.708;23.312;2023-04-16T05:17:43;141111.44;;;11.60;62.30
788;BME280;16074;42.708;23.312;2023-04-16T05:20:12;141111.44;;;11.60;62.65
788;BME280;16074;42.708;23.312;2023-04-16T05:22:40;141140.38;;;11.72;62.82
788;BME280;16074;42.708;23.312;2023-04-16T05:25:09;141152.44;;;11.77;63.21
788;BME280;16074;42.708;23.312;2023-04-16T05:27:37;141147.59;;;11.75;63.20
788;BME280;16074;42.708;23.312;2023-04-16T05:30:08;141170.50;;;11.85;62.95
788;BME280;16074;42.708;23.312;2023-04-16T05:32:38;141143.97;;;11.74;63.38
788;BME280;16074;42.708;23.312;2023-04-16T05:35:07;141130.72;;;11.68;63.70
788;BME280;16074;42.708;23.312;2023-04-16T05:37:36;141137.94;;;11.71;64.22
788;BME280;16074;42.708;23.312;2023-04-16T05:40:06;141145.19;;;11.74;64.75
788;BME280;16074;42.708;23.312;2023-04-16T05:42:34;141142.78;;;11.73;65.01
788;BME280;16074;42.708;23.312;2023-04-16T05:45:03;141137.94;;;11.71;64.60
788;BME280;16074;42.708;23.312;2023-04-16T05:47:33;141139.13;;;11.72;65.27
788;BME280;16074;42.708;23.312;2023-04-16T05:50:01;141164.47;;;11.82;64.91
788;BME280;16074;42.708;23.312;2023-04-16T05:52:29;141187.38;;;11.91;64.98
788;BME280;16074;42.708;23.312;2023-04-16T05:54:58;141204.25;;;11.98;64.33
788;BME280;16074;42.708;23.312;2023-04-16T05:57:27;141204.25;;;11.98;65.21
788;BME280;16074;42.708;23.312;2023-04-16T05:59:56;141230.78;;;12.09;64.80
788;BME280;16074;42.708;23.312;2023-04-16T06:02:24;141259.69;;;12.21;64.42
788;BME280;16074;42.708;23.312;2023-04-16T06:04:54;141304.38;;;12.40;63.65
788;BME280;16074;42.708;23.312;2023-04-16T06:07:22;141312.78;;;12.43;62.54
788;BME280;16074;42.708;23.312;2023-04-16T06:09:51;141311.59;;;12.43;62.47
788;BME280;16074;42.708;23.312;2023-04-16T06:12:19;141317.59;;;12.45;61.92
788;BME280;16074;42.708;23.312;2023-04-16T06:14:48;141361.06;;;12.63;61.86
788;BME280;16074;42.708;23.312;2023-04-16T06:17:16;141399.63;;;12.79;61.31
788;BME280;16074;42.708;23.312;2023-04-16T06:19:45;141428.66;;;12.91;60.70
788;BME280;16074;42.708;23.312;2023-04-16T06:22:14;141454.00;;;13.02;60.09
788;BME280;16074;42.708;23.312;2023-04-16T06:24:43;141472.09;;;13.09;60.43
788;BME280;16074;42.708;23.312;2023-04-16T06:27:11;141455.19;;;13.02;59.57
788;BME280;16074;42.708;23.312;2023-04-16T06:29:39;141481.75;;;13.13;59.29
788;BME280;16074;42.708;23.312;2023-04-16T06:32:08;141509.50;;;13.24;59.56
788;BME280;16074;42.708;23.312;2023-04-16T06:34:36;141531.25;;;13.33;59.11
788;BME280;16074;42.708;23.312;2023-04-16T06:37:04;141538.50;;;13.36;59.97
788;BME280;16074;42.708;23.312;2023-04-16T06:39:37;141590.41;;;13.58;59.78
788;BME280;16074;42.708;23.312;2023-04-16T06:42:06;141623.00;;;13.71;59.18
788;BME280;16074;42.708;23.312;2023-04-16T06:44:35;141639.91;;;13.78;58.99
788;BME280;16074;42.708;23.312;2023-04-16T06:47:03;141682.16;;;13.96;59.41
788;BME280;16074;42.708;23.312;2023-04-16T06:49:31;141702.72;;;14.04;58.13
788;BME280;16074;42.708;23.312;2023-04-16T06:51:59;141745.06;;;14.22;57.61
788;BME280;16074;42.708;23.312;2023-04-16T06:54:31;141774.06;;;14.33;57.91
788;BME280;16074;42.708;23.312;2023-04-16T06:57:01;141786.16;;;14.38;57.61
788;BME280;16074;42.708;23.312;2023-04-16T06:59:29;141810.28;;;14.48;57.97
788;BME280;16074;42.708;23.312;2023-04-16T07:01:57;141842.94;;;14.62;57.71
788;BME280;16074;42.708;23.312;2023-04-16T07:04:26;141884.00;;;14.79;57.54
788;BME280;16074;42.708;23.312;2023-04-16T07:06:54;141879.16;;;14.77;58.13
788;BME280;16074;42.708;23.312;2023-04-16T07:09:22;141907.00;;;14.88;58.08
788;BME280;16074;42.708;23.312;2023-04-16T07:11:52;141909.44;;;14.89;56.97
788;BME280;16074;42.708;23.312;2023-04-16T07:14:22;141903.34;;;14.87;57.96
788;BME280;16074;42.708;23.312;2023-04-16T07:16:50;141931.19;;;14.98;57.47
788;BME280;16074;42.708;23.312;2023-04-16T07:19:18;141905.78;;;14.88;56.97
788;BME280;16074;42.708;23.312;2023-04-16T07:21:47;141938.44;;;15.01;56.97
788;BME280;16074;42.708;23.312;2023-04-16T07:24:15;141962.59;;;15.11;56.76
788;BME280;16074;42.708;23.312;2023-04-16T07:26:44;141950.50;;;15.06;56.97
788;BME280;16074;42.708;23.312;2023-04-16T07:29:12;141948.09;;;15.05;57.14
788;BME280;16074;42.708;23.312;2023-04-16T07:31:41;141980.75;;;15.19;56.76
788;BME280;16074;42.708;23.312;2023-04-16T07:34:10;142008.59;;;15.30;56.38
788;BME280;16074;42.708;23.312;2023-04-16T07:36:38;141998.88;;;15.26;56.11
788;BME280;16074;42.708;23.312;2023-04-16T07:39:06;141985.59;;;15.21;55.52
788;BME280;16074;42.708;23.312;2023-04-16T07:41:37;142017.06;;;15.34;55.56
788;BME280;16074;42.708;23.312;2023-04-16T07:44:06;142000.16;;;15.27;55.35
788;BME280;16074;42.708;23.312;2023-04-16T07:46:34;141919.09;;;14.93;56.61
788;BME280;16074;42.708;23.312;2023-04-16T07:49:14;141961.41;;;15.11;57.34
788;BME280;16074;42.708;23.312;2023-04-16T07:51:42;141963.81;;;15.12;56.28
788;BME280;16074;42.708;23.312;2023-04-16T07:54:10;142012.22;;;15.32;56.66
788;BME280;16074;42.708;23.312;2023-04-16T07:56:39;142046.09;;;15.46;55.78
788;BME280;16074;42.708;23.312;2023-04-16T07:59:07;142061.84;;;15.52;55.74
788;BME280;16074;42.708;23.312;2023-04-16T08:01:50;142119.88;;;15.76;55.25
788;BME280;16074;42.708;23.312;2023-04-16T08:04:20;142144.09;;;15.86;55.39
788;BME280;16074;42.708;23.312;2023-04-16T08:06:52;142159.81;;;15.92;54.36
788;BME280;16074;42.708;23.312;2023-04-16T08:09:21;142203.38;;;16.10;54.59
788;BME280;16074;42.708;23.312;2023-04-16T08:11:50;142228.78;;;16.21;54.26
788;BME280;16074;42.708;23.312;2023-04-16T08:14:19;142291.78;;;16.47;53.51
788;BME280;16074;42.708;23.312;2023-04-16T08:16:47;142236.03;;;16.24;52.97
788;BME280;16074;42.708;23.312;2023-04-16T08:19:15;142255.41;;;16.32;53.27
788;BME280;16074;42.708;23.312;2023-04-16T08:21:45;142340.25;;;16.67;52.79
788;BME280;16074;42.708;23.312;2023-04-16T08:24:13;142399.56;;;16.91;51.87
788;BME280;16074;42.708;23.312;2023-04-16T08:26:42;142504.97;;;17.34;51.36
788;BME280;16074;42.708;23.312;2023-04-16T08:29:10;142604.38;;;17.75;49.66
788;BME280;16074;42.708;23.312;2023-04-16T08:31:39;142667.38;;;18.01;49.26
788;BME280;16074;42.708;23.312;2023-04-16T08:34:09;142747.47;;;18.34;47.76
788;BME280;16074;42.708;23.312;2023-04-16T08:36:39;142770.50;;;18.43;47.19
788;BME280;16074;42.708;23.312;2023-04-16T08:39:09;142837.22;;;18.71;46.63
788;BME280;16074;42.708;23.312;2023-04-16T08:41:40;142860.25;;;18.80;46.00
788;BME280;16074;42.708;23.312;2023-04-16T08:44:13;142906.34;;;18.99;45.06
788;BME280;16074;42.708;23.312;2023-04-16T08:46:45;142865.09;;;18.82;46.00
788;BME280;16074;42.708;23.312;2023-04-16T08:49:15;142937.91;;;19.12;46.31
788;BME280;16074;42.708;23.312;2023-04-16T08:51:50;143020.47;;;19.46;45.42
788;BME280;16074;42.708;23.312;2023-04-16T08:54:38;143024.13;;;19.47;44.78
788;BME280;16074;42.708;23.312;2023-04-16T08:57:09;143059.31;;;19.62;44.22
788;BME280;16074;42.708;23.312;2023-04-16T08:59:39;143039.91;;;19.54;44.18
788;BME280;16074;42.708;23.312;2023-04-16T09:02:11;143130.97;;;19.91;43.22
788;BME280;16074;42.708;23.312;2023-04-16T09:04:40;143134.59;;;19.93;42.98
788;BME280;16074;42.708;23.312;2023-04-16T09:07:08;143158.91;;;20.03;42.95
788;BME280;16074;42.708;23.312;2023-04-16T09:09:39;143191.69;;;20.16;42.81
788;BME280;16074;42.708;23.312;2023-04-16T09:12:09;143188.09;;;20.15;42.66
788;BME280;16074;42.708;23.312;2023-04-16T09:14:37;143192.94;;;20.17;42.78
788;BME280;16074;42.708;23.312;2023-04-16T09:17:08;143154.06;;;20.01;42.80
788;BME280;16074;42.708;23.312;2023-04-16T09:19:36;143126.09;;;19.89;43.23
788;BME280;16074;42.708;23.312;2023-04-16T09:22:05;143111.53;;;19.83;43.02
788;BME280;16074;42.708;23.312;2023-04-16T09:24:33;143117.56;;;19.86;43.34
788;BME280;16074;42.708;23.312;2023-04-16T09:27:03;143197.81;;;20.19;43.02
788;BME280;16074;42.708;23.312;2023-04-16T09:29:35;143281.63;;;20.53;42.61
788;BME280;16074;42.708;23.312;2023-04-16T09:32:06;143365.53;;;20.87;41.97
788;BME280;16074;42.708;23.312;2023-04-16T09:34:53;143412.91;;;21.07;41.10
788;BME280;16074;42.708;23.312;2023-04-16T09:37:21;143453.00;;;21.23;40.04
788;BME280;16074;42.708;23.312;2023-04-16T09:39:54;143467.59;;;21.29;39.72
788;BME280;16074;42.708;23.312;2023-04-16T09:42:26;143397.06;;;21.00;40.20
788;BME280;16074;42.708;23.312;2023-04-16T09:44:55;143416.53;;;21.08;40.63
788;BME280;16074;42.708;23.312;2023-04-16T09:47:38;143523.56;;;21.52;39.89
788;BME280;16074;42.708;23.312;2023-04-16T09:50:09;143577.06;;;21.74;38.95
788;BME280;16074;42.708;23.312;2023-04-16T09:52:39;143544.25;;;21.61;39.08
788;BME280;16074;42.708;23.312;2023-04-16T09:55:10;143658.56;;;22.07;38.41
788;BME280;16074;42.708;23.312;2023-04-16T09:57:40;143522.31;;;21.52;38.55
788;BME280;16074;42.708;23.312;2023-04-16T10:00:09;143573.44;;;21.73;38.49
788;BME280;16074;42.708;23.312;2023-04-16T10:02:39;143635.47;;;21.98;38.26
788;BME280;16074;42.708;23.312;2023-04-16T10:05:08;143646.41;;;22.02;38.43
788;BME280;16074;42.708;23.312;2023-04-16T10:07:42;143663.44;;;22.09;38.51
788;BME280;16074;42.708;23.312;2023-04-16T10:10:10;143656.13;;;22.06;38.84
788;BME280;16074;42.708;23.312;2023-04-16T10:12:40;143688.97;;;22.20;38.72
788;BME280;16074;42.708;23.312;2023-04-16T10:15:10;143691.41;;;22.21;38.03
788;BME280;16074;42.708;23.312;2023-04-16T10:17:38;143715.75;;;22.31;38.38
788;BME280;16074;42.708;23.312;2023-04-16T10:20:07;143654.94;;;22.06;38.27
788;BME280;16074;42.708;23.312;2023-04-16T10:22:36;143695.09;;;22.22;38.15
788;BME280;16074;42.708;23.312;2023-04-16T10:25:06;143651.28;;;22.04;37.79
788;BME280;16074;42.708;23.312;2023-04-16T10:27:36;143691.41;;;22.21;37.41
788;BME280;16074;42.708;23.312;2023-04-16T10:30:07;143673.19;;;22.13;37.74
788;BME280;16074;42.708;23.312;2023-04-16T10:32:37;143707.25;;;22.27;38.08
788;BME280;16074;42.708;23.312;2023-04-16T10:35:05;143738.91;;;22.40;37.62
788;BME280;16074;42.708;23.312;2023-04-16T10:37:36;143715.75;;;22.31;37.91
788;BME280;16074;42.708;23.312;2023-04-16T10:40:22;143782.72;;;22.58;37.19
788;BME280;16074;42.708;23.312;2023-04-16T10:42:55;143769.34;;;22.53;36.75
788;BME280;16074;42.708;23.312;2023-04-16T10:45:31;143849.66;;;22.86;36.38
788;BME280;16074;42.708;23.312;2023-04-16T10:48:04;143928.84;;;23.18;36.83
788;BME280;16074;42.708;23.312;2023-04-16T10:50:36;144105.50;;;23.90;35.67
788;BME280;16074;42.708;23.312;2023-04-16T10:53:19;144245.66;;;24.47;35.03
788;BME280;16074;42.708;23.312;2023-04-16T10:55:56;144117.69;;;23.95;34.32
788;BME280;16074;42.708;23.312;2023-04-16T10:58:28;144189.56;;;24.24;33.88
788;BME280;16074;42.708;23.312;2023-04-16T11:00:59;144216.41;;;24.35;33.26
788;BME280;16074;42.708;23.312;2023-04-16T11:03:29;144281.03;;;24.62;32.50
788;BME280;16074;42.708;23.312;2023-04-16T11:06:10;144288.38;;;24.65;33.91
788;BME280;16074;42.708;23.312;2023-04-16T11:08:39;144301.75;;;24.70;33.77
788;BME280;16074;42.708;23.312;2023-04-16T11:11:20;144326.16;;;24.80;33.68
788;BME280;16074;42.708;23.312;2023-04-16T11:13:48;144304.19;;;24.71;33.44
788;BME280;16074;42.708;23.312;2023-04-16T11:16:18;144271.28;;;24.58;33.75
788;BME280;16074;42.708;23.312;2023-04-16T11:18:46;144231.03;;;24.41;34.01
788;BME280;16074;42.708;23.312;2023-04-16T11:21:18;144468.91;;;25.39;33.17
788;BME280;16074;42.708;23.312;2023-04-16T11:23:48;144599.47;;;25.92;31.72
788;BME280;16074;42.708;23.312;2023-04-16T11:26:24;144579.94;;;25.84;31.31
788;BME280;16074;42.708;23.312;2023-04-16T11:28:53;144435.94;;;25.25;32.23
788;BME280;16074;42.708;23.312;2023-04-16T11:31:24;144420.09;;;25.19;32.40
788;BME280;16074;42.708;23.312;2023-04-16T11:33:55;144379.81;;;25.02;32.80
788;BME280;16074;42.708;23.312;2023-04-16T11:36:23;144424.97;;;25.21;32.83
788;BME280;16074;42.708;23.312;2023-04-16T11:39:00;144414.03;;;25.16;32.15
788;BME280;16074;42.708;23.312;2023-04-16T11:41:30;144244.41;;;24.47;32.60
788;BME280;16074;42.708;23.312;2023-04-16T11:43:58;144222.47;;;24.38;32.41
788;BME280;16074;42.708;23.312;2023-04-16T11:46:38;144067.69;;;23.75;33.06
788;BME280;16074;42.708;23.312;2023-04-16T11:49:06;144004.38;;;23.49;33.59
788;BME280;16074;42.708;23.312;2023-04-16T11:51:38;143966.59;;;23.33;33.97
788;BME280;16074;42.708;23.312;2023-04-16T11:54:07;143839.94;;;22.82;35.12
788;BME280;16074;42.708;23.312;2023-04-16T11:56:44;143751.06;;;22.45;35.23
788;BME280;16074;42.708;23.312;2023-04-16T11:59:15;143734.03;;;22.38;35.91
788;BME280;16074;42.708;23.312;2023-04-16T12:01:48;143738.91;;;22.40;36.29
788;BME280;16074;42.708;23.312;2023-04-16T12:04:18;143730.41;;;22.37;36.66
788;BME280;16074;42.708;23.312;2023-04-16T12:07:06;143753.50;;;22.46;36.47
788;BME280;16074;42.708;23.312;2023-04-16T12:09:36;143780.28;;;22.57;37.32
788;BME280;16074;42.708;23.312;2023-04-16T12:12:24;143853.34;;;22.87;36.33
788;BME280;16074;42.708;23.312;2023-04-16T12:14:53;143899.56;;;23.06;35.98
788;BME280;16074;42.708;23.312;2023-04-16T12:17:24;143939.84;;;23.22;35.54
788;BME280;16074;42.708;23.312;2023-04-16T12:19:55;143909.38;;;23.10;35.12
788;BME280;16074;42.708;23.312;2023-04-16T12:22:28;143880.09;;;22.98;35.21
788;BME280;16074;42.708;23.312;2023-04-16T12:25:00;143861.84;;;22.91;35.46
788;BME280;16074;42.708;23.312;2023-04-16T12:27:43;143759.63;;;22.49;35.73
788;BME280;16074;42.708;23.312;2023-04-16T12:30:20;143814.38;;;22.71;35.56
788;BME280;16074;42.708;23.312;2023-04-16T12:32:52;143740.13;;;22.41;36.04
788;BME280;16074;42.708;23.312;2023-04-16T12:35:29;143539.34;;;21.59;37.44
788;BME280;16074;42.708;23.312;2023-04-16T12:37:58;143420.19;;;21.10;38.19
788;BME280;16074;42.708;23.312;2023-04-16T12:40:27;143356.97;;;20.84;38.85
788;BME280;16074;42.708;23.312;2023-04-16T12:42:55;143414.09;;;21.07;38.38
788;BME280;16074;42.708;23.312;2023-04-16T12:45:23;143321.72;;;20.69;38.72
788;BME280;16074;42.708;23.312;2023-04-16T12:47:53;143207.53;;;20.23;39.75
788;BME280;16074;42.708;23.312;2023-04-16T12:50:22;143243.97;;;20.38;39.49
788;BME280;16074;42.708;23.312;2023-04-16T12:52:50;143234.25;;;20.34;39.64
788;BME280;16074;42.708;23.312;2023-04-16T12:55:19;143253.66;;;20.42;39.39
788;BME280;16074;42.708;23.312;2023-04-16T12:57:47;143220.88;;;20.28;39.91
788;BME280;16074;42.708;23.312;2023-04-16T13:00:16;143214.81;;;20.26;40.08
788;BME280;16074;42.708;23.312;2023-04-16T13:02:44;143234.25;;;20.34;40.19
788;BME280;16074;42.708;23.312;2023-04-16T13:05:14;143145.53;;;19.97;41.04
788;BME280;16074;42.708;23.312;2023-04-16T13:07:45;142876.03;;;18.87;44.10
788;BME280;16074;42.708;23.312;2023-04-16T13:10:13;142803.22;;;18.57;44.96
788;BME280;16074;42.708;23.312;2023-04-16T13:12:42;142742.63;;;18.32;45.51
788;BME280;16074;42.708;23.312;2023-04-16T13:15:12;142736.53;;;18.29;44.79